createdAt,value
2022-08-31T00:00:09.908Z,4.68
2022-08-31T00:02:55.979Z,5.30
2022-08-31T00:05:23.653Z,4.35
2022-08-31T00:07:50.619Z,4.63
2022-08-31T00:10:20.029Z,4.05
2022-08-31T00:13:04.288Z,3.92
2022-08-31T00:15:31.181Z,3.60
2022-08-31T00:17:58.878Z,4.43
2022-08-31T00:20:33.806Z,3.75
2022-08-31T00:23:07.469Z,3.50
2022-08-31T00:28:02.485Z,3.85
2022-08-31T00:30:30.116Z,3.33
2022-08-31T00:32:58.532Z,3.50
2022-08-31T00:35:27.211Z,3.47
2022-08-31T00:37:54.407Z,3.63
2022-08-31T00:40:21.560Z,3.42
2022-08-31T00:42:48.596Z,3.85
2022-08-31T00:45:15.937Z,3.70
2022-08-31T00:47:43.086Z,3.70
2022-08-31T00:50:14.111Z,3.72
2022-08-31T00:52:46.063Z,4.03
2022-08-31T00:55:19.803Z,4.25
2022-08-31T00:57:49.582Z,4.15
2022-08-31T01:00:20.272Z,3.92
2022-08-31T01:02:48.181Z,4.10
2022-08-31T01:05:16.744Z,3.72
2022-08-31T01:07:47.760Z,4.10
2022-08-31T01:10:16.888Z,3.92
2022-08-31T01:12:45.710Z,4.15
2022-08-31T01:15:13.659Z,4.57
2022-08-31T01:17:41.369Z,5.10
2022-08-31T01:20:19.313Z,5.28
2022-08-31T01:22:52.163Z,5.45
2022-08-31T01:27:46.972Z,5.18
2022-08-31T01:30:22.193Z,5.40
2022-08-31T01:32:49.465Z,5.68
2022-08-31T01:35:16.818Z,5.13
2022-08-31T01:37:43.921Z,5.50
2022-08-31T01:40:11.860Z,6.65
2022-08-31T01:42:38.783Z,6.68
2022-08-31T01:45:06.528Z,6.88
2022-08-31T01:47:33.921Z,6.90
2022-08-31T01:50:00.883Z,7.80
2022-08-31T01:52:28.180Z,7.68
2022-08-31T01:54:55.854Z,7.20
2022-08-31T01:57:33.704Z,7.03
2022-08-31T02:00:04.904Z,7.75
2022-08-31T02:02:32.203Z,7.65
2022-08-31T02:04:59.171Z,7.30
2022-08-31T02:07:27.038Z,8.23
2022-08-31T02:09:54.795Z,7.78
2022-08-31T02:12:21.676Z,8.85
2022-08-31T02:14:48.837Z,7.55
2022-08-31T02:17:16.043Z,8.48
2022-08-31T02:19:42.908Z,7.88
2022-08-31T02:22:09.755Z,8.52
2022-08-31T02:24:36.697Z,8.63
2022-08-31T02:27:03.800Z,8.65
2022-08-31T02:29:30.680Z,9.05
2022-08-31T02:31:58.652Z,9.25
2022-08-31T02:34:25.904Z,9.65
2022-08-31T02:36:52.961Z,9.35
2022-08-31T02:39:20.022Z,9.90
2022-08-31T02:41:47.335Z,9.32
2022-08-31T02:44:14.311Z,9.18
2022-08-31T02:46:41.477Z,9.57
2022-08-31T02:49:08.442Z,10.20
2022-08-31T02:51:35.277Z,10.25
2022-08-31T02:54:02.127Z,10.00
2022-08-31T02:56:29.011Z,10.45
2022-08-31T02:58:55.921Z,10.90
2022-08-31T03:01:24.332Z,9.75
2022-08-31T03:03:51.359Z,9.57
2022-08-31T03:06:20.025Z,9.55
2022-08-31T03:08:47.642Z,9.18
2022-08-31T03:11:14.759Z,10.07
2022-08-31T03:13:42.321Z,9.45
2022-08-31T03:16:11.870Z,8.73
2022-08-31T03:18:38.850Z,9.30
2022-08-31T03:21:05.889Z,9.23
2022-08-31T03:23:32.777Z,9.60
2022-08-31T03:26:00.261Z,9.35
2022-08-31T03:28:27.145Z,9.00
2022-08-31T03:30:54.262Z,9.20
2022-08-31T03:33:21.256Z,9.77
2022-08-31T03:35:48.139Z,8.98
2022-08-31T03:38:16.154Z,9.60
2022-08-31T03:40:44.285Z,9.18
2022-08-31T03:43:12.117Z,10.10
2022-08-31T03:45:40.801Z,10.38
2022-08-31T03:48:12.491Z,10.35
2022-08-31T03:50:40.956Z,9.68
2022-08-31T03:53:09.007Z,10.10
2022-08-31T03:55:38.704Z,10.13
2022-08-31T03:58:07.000Z,10.35
2022-08-31T04:00:35.140Z,9.20
2022-08-31T04:03:02.716Z,9.98
2022-08-31T04:05:31.167Z,10.15
2022-08-31T04:07:58.379Z,10.23
2022-08-31T04:10:25.731Z,9.90
2022-08-31T04:12:52.674Z,9.90
2022-08-31T04:15:19.687Z,10.77
2022-08-31T04:17:47.500Z,10.13
2022-08-31T04:20:14.718Z,10.98
2022-08-31T04:22:41.582Z,10.93
2022-08-31T04:25:10.513Z,11.63
2022-08-31T04:27:38.442Z,12.82
2022-08-31T04:30:07.793Z,11.35
2022-08-31T04:32:35.606Z,11.95
2022-08-31T04:35:03.622Z,11.85
2022-08-31T04:37:31.025Z,12.90
2022-08-31T04:39:59.259Z,12.60
2022-08-31T04:42:28.113Z,12.32
2022-08-31T04:44:55.027Z,11.88
2022-08-31T04:47:21.821Z,12.23
2022-08-31T04:49:48.912Z,11.75
2022-08-31T04:52:15.825Z,11.10
2022-08-31T04:54:42.663Z,11.65
2022-08-31T04:57:09.537Z,11.85
2022-08-31T04:59:36.482Z,11.27
2022-08-31T05:02:04.115Z,11.05
2022-08-31T05:04:31.933Z,11.75
2022-08-31T05:06:58.984Z,12.50
2022-08-31T05:09:26.065Z,11.70
2022-08-31T05:11:54.266Z,12.68
2022-08-31T05:14:22.260Z,12.32
2022-08-31T05:16:49.751Z,13.05
2022-08-31T05:19:16.927Z,12.75
2022-08-31T05:21:45.078Z,13.65
2022-08-31T05:24:22.965Z,13.32
2022-08-31T05:26:54.457Z,13.70
2022-08-31T05:29:25.013Z,12.93
2022-08-31T05:31:52.720Z,12.05
2022-08-31T05:34:21.019Z,13.02
2022-08-31T05:36:51.687Z,12.30
2022-08-31T05:39:18.620Z,12.70
2022-08-31T05:41:47.376Z,12.27
2022-08-31T05:44:15.765Z,12.43
2022-08-31T05:46:43.140Z,12.45
2022-08-31T05:49:10.983Z,13.05
2022-08-31T05:51:39.511Z,13.13
2022-08-31T05:54:07.632Z,13.63
2022-08-31T05:56:35.286Z,12.95
2022-08-31T05:59:02.163Z,13.00
2022-08-31T06:01:34.839Z,12.50
2022-08-31T06:04:02.438Z,12.98
2022-08-31T06:06:30.070Z,11.48
2022-08-31T06:08:58.077Z,12.73
2022-08-31T06:11:29.830Z,12.82
2022-08-31T06:13:58.849Z,13.57
2022-08-31T06:16:27.072Z,12.68
2022-08-31T06:18:55.693Z,12.25
2022-08-31T06:21:30.146Z,13.05
2022-08-31T06:23:58.092Z,12.32
2022-08-31T06:26:27.725Z,12.43
2022-08-31T06:28:57.167Z,12.50
2022-08-31T06:31:28.149Z,14.18
2022-08-31T06:33:56.091Z,12.25
2022-08-31T06:36:25.525Z,13.45
2022-08-31T06:38:53.419Z,14.48
2022-08-31T06:41:24.095Z,14.25
2022-08-31T06:43:50.987Z,14.20
2022-08-31T06:46:20.353Z,14.07
2022-08-31T06:48:48.371Z,13.75
2022-08-31T06:51:15.272Z,13.40
2022-08-31T06:53:45.267Z,13.93
2022-08-31T06:56:20.906Z,14.25
2022-08-31T06:58:54.035Z,15.52
2022-08-31T07:01:32.634Z,13.88
2022-08-31T07:04:05.994Z,15.18
2022-08-31T07:06:38.338Z,13.25
2022-08-31T07:09:07.718Z,16.23
2022-08-31T07:11:45.050Z,14.20
2022-08-31T07:14:14.894Z,15.38
2022-08-31T07:16:43.039Z,14.10
2022-08-31T07:19:11.264Z,15.38
2022-08-31T07:21:47.303Z,14.77
2022-08-31T07:24:18.052Z,14.00
2022-08-31T07:26:49.803Z,15.48
2022-08-31T07:29:21.107Z,13.85
2022-08-31T07:31:48.833Z,13.60
2022-08-31T07:34:24.015Z,12.45
2022-08-31T07:37:09.702Z,13.05
2022-08-31T07:39:56.644Z,14.00
2022-08-31T07:42:28.689Z,14.32
2022-08-31T07:44:57.926Z,14.50
2022-08-31T07:47:28.447Z,13.48
2022-08-31T07:50:01.129Z,13.82
2022-08-31T07:52:31.894Z,14.90
2022-08-31T07:55:07.854Z,14.55
2022-08-31T07:57:45.671Z,14.48
2022-08-31T08:00:14.676Z,13.25
2022-08-31T08:02:46.401Z,13.13
2022-08-31T08:05:26.811Z,11.60
2022-08-31T08:07:58.439Z,11.48
2022-08-31T08:10:27.717Z,11.77
2022-08-31T08:13:11.647Z,11.68
2022-08-31T08:15:40.369Z,12.70
2022-08-31T08:18:10.922Z,12.95
2022-08-31T08:20:39.023Z,12.85
2022-08-31T08:23:14.839Z,12.25
2022-08-31T08:25:43.686Z,13.48
2022-08-31T08:33:34.283Z,14.27
2022-08-31T08:36:03.935Z,14.02
2022-08-31T08:38:32.140Z,15.43
2022-08-31T08:41:02.145Z,14.73
2022-08-31T08:43:33.363Z,16.60
2022-08-31T08:46:15.208Z,15.68
2022-08-31T08:48:55.927Z,16.25
2022-08-31T08:51:25.627Z,15.45
2022-08-31T08:54:00.026Z,17.52
2022-08-31T08:56:33.654Z,16.88
2022-08-31T08:59:01.205Z,17.02
2022-08-31T09:01:29.737Z,15.05
2022-08-31T09:04:06.185Z,15.30
2022-08-31T09:06:45.438Z,13.00
2022-08-31T09:09:37.108Z,11.98
2022-08-31T09:12:12.565Z,11.80
2022-08-31T09:15:11.278Z,10.98
2022-08-31T09:17:55.823Z,11.88
2022-08-31T09:20:28.300Z,10.07
2022-08-31T09:22:56.091Z,10.90
2022-08-31T09:25:34.714Z,11.80
2022-08-31T09:28:07.507Z,10.98
2022-08-31T09:30:40.483Z,10.45
2022-08-31T09:35:42.832Z,9.07
2022-08-31T09:38:26.004Z,9.85
2022-08-31T09:43:25.439Z,8.73
2022-08-31T09:46:09.875Z,9.68
2022-08-31T09:48:51.433Z,9.65
2022-08-31T09:51:31.096Z,9.73
2022-08-31T09:54:23.943Z,9.20
2022-08-31T09:56:56.932Z,10.38
2022-08-31T09:59:42.146Z,9.40
2022-08-31T10:02:22.219Z,9.02
2022-08-31T10:04:55.120Z,8.13
2022-08-31T10:07:49.081Z,9.13
2022-08-31T10:10:44.973Z,8.75
2022-08-31T10:13:45.938Z,7.65
2022-08-31T10:16:42.724Z,7.10
2022-08-31T10:19:20.372Z,6.68
2022-08-31T10:22:25.486Z,7.18
2022-08-31T10:25:12.036Z,7.32
2022-08-31T10:27:44.978Z,7.13
2022-08-31T10:30:23.046Z,6.43
2022-08-31T10:33:16.688Z,8.90
2022-08-31T10:35:55.107Z,7.13
2022-08-31T10:38:29.479Z,6.82
2022-08-31T10:41:17.849Z,6.88
2022-08-31T10:43:49.097Z,6.93
2022-08-31T10:46:16.664Z,6.43
2022-08-31T10:48:47.333Z,7.63
2022-08-31T10:51:22.998Z,7.93
2022-08-31T10:53:52.779Z,6.40
2022-08-31T10:56:41.708Z,7.07
2022-08-31T10:59:50.808Z,6.80
2022-08-31T11:03:10.597Z,6.63
2022-08-31T11:05:59.213Z,6.38
2022-08-31T11:08:49.115Z,6.05
2022-08-31T11:11:43.680Z,5.63
2022-08-31T11:14:22.647Z,5.95
2022-08-31T11:16:52.405Z,5.90
2022-08-31T11:19:38.148Z,6.30
2022-08-31T11:22:07.857Z,5.95
2022-08-31T11:25:15.218Z,5.90
2022-08-31T11:27:45.019Z,6.47
2022-08-31T11:30:50.560Z,5.88
2022-08-31T11:33:28.275Z,6.18
2022-08-31T11:36:08.951Z,6.28
2022-08-31T11:38:56.895Z,6.15
2022-08-31T11:41:46.655Z,6.70
2022-08-31T11:44:32.996Z,6.88
2022-08-31T11:47:13.036Z,5.50
2022-08-31T11:49:43.977Z,5.82
2022-08-31T11:52:29.825Z,6.25
2022-08-31T11:55:04.446Z,6.30
2022-08-31T11:57:57.213Z,6.50
2022-08-31T12:00:40.886Z,5.90
2022-08-31T12:03:09.642Z,6.05
2022-08-31T12:05:58.214Z,5.53
2022-08-31T12:08:33.803Z,5.82
2022-08-31T12:11:29.731Z,6.25
2022-08-31T12:14:16.835Z,6.07
2022-08-31T12:16:57.832Z,5.65
2022-08-31T12:20:01.271Z,5.18
2022-08-31T12:22:56.339Z,4.55
2022-08-31T12:25:40.807Z,5.72
2022-08-31T12:28:07.738Z,5.70
2022-08-31T12:30:34.658Z,5.40
2022-08-31T12:33:15.614Z,5.57
2022-08-31T12:35:43.433Z,5.32
2022-08-31T12:38:18.303Z,5.13
2022-08-31T12:40:49.948Z,5.60
2022-08-31T12:43:20.056Z,4.78
2022-08-31T12:46:02.071Z,4.60
2022-08-31T12:48:57.392Z,5.05
2022-08-31T12:51:45.855Z,5.38
2022-08-31T12:54:21.806Z,5.20
2022-08-31T12:56:56.795Z,5.05
2022-08-31T13:00:20.207Z,5.93
2022-08-31T13:02:51.676Z,5.70
2022-08-31T13:05:24.888Z,5.63
2022-08-31T13:07:52.372Z,6.18
2022-08-31T13:10:22.247Z,5.57
2022-08-31T13:13:00.749Z,6.30
2022-08-31T13:15:35.063Z,5.88
2022-08-31T13:18:15.325Z,5.97
2022-08-31T13:20:44.203Z,6.15
2022-08-31T13:23:14.759Z,6.00
2022-08-31T13:25:42.125Z,6.25
2022-08-31T13:28:12.538Z,5.88
2022-08-31T13:30:42.038Z,5.57
2022-08-31T13:33:31.313Z,6.10
2022-08-31T13:36:06.348Z,4.88
2022-08-31T13:38:42.407Z,5.72
2022-08-31T13:41:24.203Z,5.80
2022-08-31T13:43:58.971Z,5.50
2022-08-31T13:46:41.876Z,5.30
2022-08-31T13:49:29.830Z,5.03
2022-08-31T13:51:57.058Z,5.38
2022-08-31T13:54:33.456Z,5.00
2022-08-31T13:57:16.231Z,4.95
2022-08-31T13:59:43.183Z,5.53
2022-08-31T14:02:16.453Z,4.60
2022-08-31T14:04:44.227Z,5.30
2022-08-31T14:07:43.509Z,4.45
2022-08-31T14:10:18.239Z,4.07
2022-08-31T14:13:02.813Z,3.83
2022-08-31T14:16:02.169Z,4.00
2022-08-31T14:18:30.583Z,3.75
2022-08-31T14:21:23.028Z,3.42
2022-08-31T14:24:03.454Z,3.00
2022-08-31T14:26:42.045Z,2.95
2022-08-31T14:29:12.943Z,3.30
2022-08-31T14:31:52.611Z,3.00
2022-08-31T14:34:32.417Z,3.75
2022-08-31T14:37:06.633Z,3.30
2022-08-31T14:39:36.226Z,3.40
2022-08-31T14:42:07.933Z,3.38
2022-08-31T14:44:40.790Z,3.03
2022-08-31T14:47:09.708Z,2.80
2022-08-31T14:49:37.062Z,3.08
2022-08-31T14:52:06.813Z,3.20
2022-08-31T14:54:37.872Z,3.15
2022-08-31T14:57:14.601Z,3.00
2022-08-31T14:59:44.844Z,3.30
2022-08-31T15:02:14.058Z,3.15
2022-08-31T15:04:45.818Z,3.30
2022-08-31T15:07:13.880Z,2.88
2022-08-31T15:09:42.445Z,2.95
2022-08-31T15:12:14.770Z,3.03
2022-08-31T15:14:44.768Z,3.42
2022-08-31T15:17:13.043Z,3.55
2022-08-31T15:19:48.216Z,3.45
2022-08-31T15:22:16.148Z,3.45
2022-08-31T15:24:45.498Z,3.05
2022-08-31T15:27:15.239Z,3.40
2022-08-31T15:29:47.527Z,3.33
2022-08-31T15:32:18.712Z,3.38
2022-08-31T15:34:58.180Z,3.28
2022-08-31T15:37:31.750Z,3.50
2022-08-31T15:40:01.577Z,3.55
2022-08-31T15:42:29.720Z,3.60
2022-08-31T15:44:57.504Z,3.38
2022-08-31T15:47:46.554Z,3.70
2022-08-31T15:53:08.997Z,3.17
2022-08-31T15:55:40.704Z,3.63
2022-08-31T15:58:09.610Z,3.65
2022-08-31T16:00:37.808Z,3.53
2022-08-31T16:03:06.211Z,3.20
2022-08-31T16:05:35.911Z,3.45
2022-08-31T16:08:03.724Z,3.40
2022-08-31T16:10:30.976Z,3.17
2022-08-31T16:12:58.316Z,3.20
2022-08-31T16:15:26.758Z,3.53
2022-08-31T16:17:57.728Z,3.65
2022-08-31T16:20:27.453Z,3.55
2022-08-31T16:22:55.251Z,3.50
2022-08-31T16:25:22.285Z,3.63
2022-08-31T16:27:49.949Z,3.90
2022-08-31T16:30:16.929Z,3.75
2022-08-31T16:32:46.423Z,3.53
2022-08-31T16:35:15.170Z,3.35
2022-08-31T16:37:42.061Z,3.45
2022-08-31T16:40:09.865Z,3.10
2022-08-31T16:42:36.873Z,2.90
2022-08-31T16:45:04.214Z,3.30
2022-08-31T16:47:31.158Z,2.63
2022-08-31T16:49:59.068Z,2.75
2022-08-31T16:52:27.421Z,3.55
2022-08-31T16:54:57.418Z,3.15
2022-08-31T16:57:27.607Z,2.63
2022-08-31T16:59:56.944Z,3.10
2022-08-31T17:02:24.796Z,3.28
2022-08-31T17:04:53.981Z,3.05
2022-08-31T17:07:24.116Z,3.10
2022-08-31T17:09:55.143Z,2.75
2022-08-31T17:12:25.697Z,2.80
2022-08-31T17:14:53.181Z,2.53
2022-08-31T17:17:25.705Z,2.92
2022-08-31T17:19:56.156Z,2.90
2022-08-31T17:22:31.778Z,3.20
2022-08-31T17:25:03.769Z,2.92
2022-08-31T17:27:33.388Z,3.22
2022-08-31T17:30:01.095Z,3.03
2022-08-31T17:32:29.244Z,3.17
2022-08-31T17:34:57.064Z,2.78
2022-08-31T17:37:32.854Z,3.08
2022-08-31T17:40:00.801Z,2.58
2022-08-31T17:42:28.567Z,2.80
2022-08-31T17:44:57.234Z,2.95
2022-08-31T17:47:25.349Z,3.80
2022-08-31T17:49:52.795Z,3.28
2022-08-31T17:52:21.614Z,3.40
2022-08-31T17:54:51.398Z,3.60
2022-08-31T17:57:25.200Z,3.03
2022-08-31T17:59:53.308Z,2.72
2022-08-31T18:02:26.660Z,3.30
2022-08-31T18:04:53.904Z,3.13
2022-08-31T18:07:21.239Z,2.65
2022-08-31T18:09:48.222Z,3.40
2022-08-31T18:12:16.666Z,3.60
2022-08-31T18:14:43.998Z,3.00
2022-08-31T18:17:15.872Z,3.22
2022-08-31T18:19:43.629Z,3.30
2022-08-31T18:22:11.040Z,3.47
2022-08-31T18:24:38.338Z,3.20
2022-08-31T18:27:08.273Z,3.47
2022-08-31T18:29:39.518Z,3.63
2022-08-31T18:32:07.968Z,3.38
2022-08-31T18:34:39.118Z,3.17
2022-08-31T18:37:07.201Z,3.33
2022-08-31T18:39:59.076Z,3.80
2022-08-31T18:45:15.708Z,3.47
2022-08-31T18:47:42.928Z,3.60
2022-08-31T18:50:10.269Z,3.15
2022-08-31T18:52:40.474Z,3.83
2022-08-31T18:55:15.610Z,3.42
2022-08-31T18:57:48.720Z,3.42
2022-08-31T19:00:17.739Z,3.67
2022-08-31T19:02:45.198Z,3.30
2022-08-31T19:05:14.572Z,3.42
2022-08-31T19:07:42.319Z,3.53
2022-08-31T19:10:12.943Z,3.42
2022-08-31T19:12:42.751Z,3.67
2022-08-31T19:15:11.298Z,3.65
2022-08-31T19:17:40.232Z,3.58
2022-08-31T19:20:10.156Z,3.63
2022-08-31T19:22:38.149Z,4.07
2022-08-31T19:25:07.155Z,3.70
2022-08-31T19:27:35.334Z,4.13
2022-08-31T19:30:06.136Z,4.05
2022-08-31T19:32:33.986Z,3.83
2022-08-31T19:35:00.952Z,4.20
2022-08-31T19:37:27.932Z,3.80
2022-08-31T19:39:54.865Z,3.83
2022-08-31T19:42:39.797Z,4.43
2022-08-31T19:45:24.432Z,4.40
2022-08-31T19:47:51.578Z,4.25
2022-08-31T19:50:18.678Z,4.10
2022-08-31T19:52:46.237Z,4.22
2022-08-31T19:55:13.412Z,4.28
2022-08-31T19:57:43.523Z,4.18
2022-08-31T20:00:12.495Z,4.32
2022-08-31T20:02:42.366Z,3.90
2022-08-31T20:05:11.677Z,4.18
2022-08-31T20:07:41.460Z,4.15
2022-08-31T20:10:09.322Z,4.28
2022-08-31T20:12:36.234Z,4.30
2022-08-31T20:15:03.928Z,3.42
2022-08-31T20:17:30.823Z,3.60
2022-08-31T20:20:00.016Z,3.00
2022-08-31T20:22:29.857Z,3.78
2022-08-31T20:24:58.391Z,3.13
2022-08-31T20:27:26.556Z,3.30
2022-08-31T20:29:53.628Z,3.35
2022-08-31T20:32:20.747Z,3.00
2022-08-31T20:34:49.820Z,3.10
2022-08-31T20:37:16.658Z,3.13
2022-08-31T20:39:43.510Z,2.95
2022-08-31T20:42:10.517Z,2.88
2022-08-31T20:44:38.203Z,2.67
2022-08-31T20:47:26.547Z,2.85
2022-08-31T20:49:56.402Z,2.88
2022-08-31T20:52:28.919Z,2.70
2022-08-31T20:55:01.363Z,3.13
2022-08-31T20:57:33.556Z,2.53
2022-08-31T21:00:04.094Z,3.15
2022-08-31T21:02:31.872Z,2.78
2022-08-31T21:05:10.324Z,2.97
2022-08-31T21:07:46.041Z,2.50
2022-08-31T21:10:13.130Z,2.72
2022-08-31T21:12:40.249Z,2.67
2022-08-31T21:15:10.237Z,2.38
2022-08-31T21:17:37.180Z,3.03
2022-08-31T21:20:05.532Z,2.70
2022-08-31T21:22:35.008Z,2.33
2022-08-31T21:25:02.265Z,2.65
2022-08-31T21:27:29.972Z,2.20
2022-08-31T21:29:57.129Z,1.92
2022-08-31T21:32:24.223Z,2.25
2022-08-31T21:34:55.966Z,2.60
2022-08-31T21:37:23.371Z,2.33
2022-08-31T21:39:53.422Z,2.10
2022-08-31T21:42:22.728Z,2.28
2022-08-31T21:44:50.531Z,2.65
2022-08-31T21:47:17.443Z,2.00
2022-08-31T21:49:45.025Z,2.50
2022-08-31T21:52:12.768Z,2.00
2022-08-31T21:54:44.767Z,2.10
2022-08-31T21:57:12.974Z,1.90
2022-08-31T21:59:39.821Z,2.45
2022-08-31T22:02:11.215Z,2.10
2022-08-31T22:04:41.443Z,2.33
2022-08-31T22:07:09.588Z,2.33
2022-08-31T22:09:37.543Z,2.42
2022-08-31T22:12:09.011Z,2.00
2022-08-31T22:14:38.599Z,2.08
2022-08-31T22:17:07.139Z,2.20
2022-08-31T22:19:38.914Z,2.40
2022-08-31T22:22:11.742Z,1.80
2022-08-31T22:24:41.275Z,2.03
2022-08-31T22:27:10.751Z,2.25
2022-08-31T22:29:38.685Z,2.08
2022-08-31T22:32:10.721Z,2.20
2022-08-31T22:34:38.885Z,1.60
2022-08-31T22:37:06.635Z,1.83
2022-08-31T22:39:33.640Z,1.77
2022-08-31T22:42:01.598Z,1.80
2022-08-31T22:44:32.379Z,2.00
2022-08-31T22:46:59.383Z,2.22
2022-08-31T22:49:27.143Z,2.22
2022-08-31T22:51:54.601Z,1.85
2022-08-31T22:54:22.937Z,2.03
2022-08-31T22:56:50.609Z,1.92
2022-08-31T22:59:24.761Z,2.05
2022-08-31T23:01:55.014Z,1.77
2022-08-31T23:04:25.275Z,2.08
2022-08-31T23:06:52.661Z,1.75
2022-08-31T23:09:21.639Z,2.10
2022-08-31T23:11:53.084Z,1.90
2022-08-31T23:14:23.153Z,2.03
2022-08-31T23:16:57.234Z,1.90
2022-08-31T23:19:32.926Z,1.88
2022-08-31T23:22:01.911Z,2.30
2022-08-31T23:24:42.051Z,1.85
2022-08-31T23:27:10.430Z,2.05
2022-08-31T23:29:45.988Z,2.00
2022-08-31T23:32:14.122Z,2.08
2022-08-31T23:34:41.997Z,1.90
2022-08-31T23:37:10.538Z,2.05
2022-08-31T23:39:40.595Z,1.98
2022-08-31T23:42:11.949Z,2.20
2022-08-31T23:44:43.685Z,2.00
2022-08-31T23:47:13.847Z,1.95
2022-08-31T23:49:42.522Z,2.05
2022-08-31T23:52:12.050Z,1.95
2022-08-31T23:54:40.152Z,2.20
2022-08-31T23:57:08.561Z,1.95
